Terminal Aerodrome Forecast
Issued by NWS

Home | Current Version | Previous Version | Graphics & Text | Print | Product List | Glossary On
Versions: 1 2 3 4 5 6 7 8 9 10 11 12 13
888
FTUS42 KMHX 211740
TAFOAJ
TAF
KOAJ 211740Z 2118/2218 VRB05KT P6SM SCT050
     FM220500 00000KT P6SM SKC
     FM220900 00000KT 4SM BR SCT006
     FM221300 VRB03KT P6SM SCT050
      AMD LTD TO CLD VIS AND WIND=

USA.gov is the U.S. government's official web portal to all federal, state and local government web resources and services.